Time;durP1;ratioP1;P1;durP2;ratioP2;P2;SDS_P1;SDS_P2;PMS_P1;PMS_P2;Temp;Humidity;BMP_temperature;BMP_pressure;BME280_temperature;BME280_humidity;BME280_pressure;Samples;Min_cycle;Max_cycle;Signal;HPM_P1;HPM_P2
2021/06/11 00:01:17;;;;;;;9.70;7.95;;;;;;;17.71;70.69;98886.07;1706804;83;20986;-43
2021/06/11 00:03:44;;;;;;;8.75;7.90;;;;;;;17.63;70.89;98890.89;1707219;83;21077;-42
2021/06/11 00:06:10;;;;;;;8.93;7.15;;;;;;;17.64;70.90;98888.33;1706961;84;21872;-42
2021/06/11 00:08:39;;;;;;;10.20;7.90;;;;;;;17.62;70.96;98889.95;1706754;83;20993;-42
2021/06/11 00:11:05;;;;;;;9.40;7.97;;;;;;;17.60;71.02;98891.73;1707010;83;21010;-42
2021/06/11 00:13:32;;;;;;;10.55;7.80;;;;;;;17.55;71.32;98884.55;1706860;83;21654;-42
2021/06/11 00:16:00;;;;;;;8.48;7.60;;;;;;;17.51;71.55;98893.43;1707065;83;20982;-42
2021/06/11 00:18:27;;;;;;;9.68;7.33;;;;;;;17.46;71.75;98894.68;1706886;84;21151;-42
2021/06/11 00:20:55;;;;;;;9.93;7.72;;;;;;;17.51;71.67;98903.80;1707158;84;21806;-42
2021/06/11 00:23:23;;;;;;;8.53;7.58;;;;;;;17.52;71.57;98900.47;1706990;84;21065;-42
2021/06/11 00:25:51;;;;;;;9.13;8.13;;;;;;;17.47;71.55;98908.56;1707169;84;21018;-42
2021/06/11 00:28:17;;;;;;;8.08;7.35;;;;;;;17.44;71.72;98911.34;1706931;84;21050;-42
2021/06/11 00:30:44;;;;;;;9.98;7.53;;;;;;;17.44;71.73;98909.38;1713012;83;21599;-42
2021/06/11 00:33:10;;;;;;;8.33;7.30;;;;;;;17.45;71.76;98910.94;1720278;83;21072;-42
2021/06/11 00:35:37;;;;;;;12.47;7.97;;;;;;;17.48;71.80;98910.69;1720411;83;21714;-42
2021/06/11 00:38:04;;;;;;;8.28;7.47;;;;;;;17.44;71.88;98911.34;1720302;83;21004;-42
2021/06/11 00:40:31;;;;;;;14.03;7.67;;;;;;;17.39;72.09;98908.48;1720243;83;21100;-42
2021/06/11 00:42:58;;;;;;;8.38;7.53;;;;;;;17.42;72.15;98908.27;1720477;83;21118;-42
2021/06/11 00:45:25;;;;;;;10.03;7.37;;;;;;;17.49;72.08;98914.98;1720312;83;21017;-42
2021/06/11 00:47:52;;;;;;;8.48;7.55;;;;;;;17.52;72.02;98913.58;1720483;83;21037;-42
2021/06/11 00:50:25;;;;;;;9.55;7.80;;;;;;;17.53;72.02;98909.63;1717594;83;21550;-42
2021/06/11 00:52:53;;;;;;;8.58;7.60;;;;;;;17.53;72.06;98906.10;1719878;83;21909;-42
2021/06/11 00:55:20;;;;;;;7.60;6.75;;;;;;;17.54;72.03;98909.03;1720651;83;21154;-42
2021/06/11 00:57:48;;;;;;;8.30;7.37;;;;;;;17.53;71.98;98910.99;1720413;83;21526;-42
2021/06/11 01:00:16;;;;;;;8.50;7.22;;;;;;;17.56;72.04;98906.66;1720418;83;21028;-42
2021/06/11 01:02:42;;;;;;;8.00;7.20;;;;;;;17.57;71.99;98909.59;1720299;83;21057;-42
2021/06/11 01:05:10;;;;;;;15.10;8.03;;;;;;;17.61;71.94;98908.36;1718488;83;21066;-42
2021/06/11 01:07:39;;;;;;;9.03;7.37;;;;;;;17.62;71.90;98911.26;1715707;83;21109;-42
2021/06/11 01:10:07;;;;;;;8.28;7.47;;;;;;;17.65;71.83;98911.03;1687182;85;21009;-42
2021/06/11 01:12:34;;;;;;;7.40;6.70;;;;;;;17.67;71.75;98910.03;1686975;85;20951;-42
2021/06/11 01:15:04;;;;;;;9.18;7.37;;;;;;;17.71;71.72;98910.16;1640794;85;21075;-42
2021/06/11 01:17:34;;;;;;;8.50;7.30;;;;;;;17.74;71.66;98912.64;1667233;84;21095;-42
2021/06/11 01:20:00;;;;;;;11.03;7.62;;;;;;;17.70;71.79;98911.34;1673950;85;21301;-42
2021/06/11 01:22:58;;;;;;;10.82;7.70;;;;;;;17.66;71.86;98916.11;1691391;84;21048;-42
2021/06/11 01:25:52;;;;;;;9.43;6.90;;;;;;;17.62;72.01;98914.62;1673915;85;21928;-42
2021/06/11 01:28:19;;;;;;;14.58;7.60;;;;;;;17.62;72.09;98910.52;1691315;84;21088;-42
2021/06/11 01:30:46;;;;;;;9.65;7.58;;;;;;;17.65;72.09;98909.08;1673338;85;21021;-42
2021/06/11 01:33:14;;;;;;;8.80;8.00;;;;;;;17.69;72.08;98907.63;1686251;85;21150;-43
2021/06/11 01:35:47;;;;;;;7.67;6.97;;;;;;;17.70;71.95;98912.70;1721282;83;21029;-43
2021/06/11 01:38:17;;;;;;;8.23;7.37;;;;;;;17.63;72.04;98910.07;1720915;82;20993;-42
2021/06/11 01:40:44;;;;;;;8.98;7.10;;;;;;;17.65;72.15;98917.30;1686055;85;21040;-42
2021/06/11 01:43:11;;;;;;;8.63;7.50;;;;;;;17.69;72.02;98915.86;1702789;83;21041;-42
2021/06/11 01:45:37;;;;;;;7.80;7.05;;;;;;;17.70;72.08;98916.05;1721356;82;21109;-42
2021/06/11 01:48:05;;;;;;;11.15;7.35;;;;;;;17.66;72.19;98921.59;1721238;83;20965;-42
2021/06/11 01:50:34;;;;;;;7.87;6.58;;;;;;;17.64;72.20;98923.97;1721194;82;21025;-42
2021/06/11 01:53:03;;;;;;;7.45;6.75;;;;;;;17.64;72.22;98923.97;1686431;85;21479;-42
2021/06/11 01:55:30;;;;;;;7.72;6.95;;;;;;;17.64;72.27;98921.22;1702986;83;21056;-42
2021/06/11 01:57:57;;;;;;;7.95;7.15;;;;;;;17.63;72.29;98918.89;1721246;83;21664;-42
2021/06/11 02:00:25;;;;;;;7.67;6.92;;;;;;;17.58;72.46;98922.85;1702609;83;20960;-42
2021/06/11 02:02:51;;;;;;;7.20;6.53;;;;;;;17.52;72.69;98924.55;1720958;83;21053;-42
2021/06/11 02:05:18;;;;;;;8.80;7.03;;;;;;;17.52;72.79;98928.66;1720932;83;20994;-42
2021/06/11 02:07:46;;;;;;;8.50;6.97;;;;;;;17.55;72.68;98924.29;1721140;83;21017;-43
2021/06/11 02:10:17;;;;;;;9.75;6.72;;;;;;;17.59;72.65;98927.18;1720974;83;21232;-43
2021/06/11 02:12:45;;;;;;;9.88;7.40;;;;;;;17.62;72.62;98930.45;1686305;84;21573;-42
2021/06/11 02:15:13;;;;;;;8.13;7.12;;;;;;;17.66;72.61;98933.93;1686148;85;20968;-43
2021/06/11 02:17:45;;;;;;;8.75;7.08;;;;;;;17.66;72.52;98929.82;1747730;82;21053;-42
2021/06/11 02:20:15;;;;;;;7.17;6.47;;;;;;;17.67;72.47;98928.60;1715147;83;21043;-42
2021/06/11 02:22:43;;;;;;;8.85;7.28;;;;;;;17.70;72.45;98925.05;1751179;81;21116;-42
2021/06/11 02:25:13;;;;;;;8.90;7.20;;;;;;;17.74;72.42;98930.46;1750766;82;20958;-42
2021/06/11 02:27:39;;;;;;;8.05;7.25;;;;;;;17.74;72.36;98930.46;1751258;81;21029;-42
2021/06/11 02:30:11;;;;;;;7.85;7.05;;;;;;;17.72;72.34;98930.88;1715084;83;21398;-42
2021/06/11 02:32:39;;;;;;;8.93;6.87;;;;;;;17.46;72.34;98891.94;1755915;81;21033;-43
2021/06/11 02:35:08;;;;;;;10.03;7.22;;;;;;;17.72;72.29;98929.50;1756454;81;21950;-42
2021/06/11 02:37:36;;;;;;;7.80;7.10;;;;;;;17.71;72.44;98937.56;1720590;83;20964;-42
2021/06/11 02:40:04;;;;;;;8.30;7.50;;;;;;;17.69;72.50;98936.42;1720441;83;21573;-42
2021/06/11 02:42:31;;;;;;;7.55;6.55;;;;;;;17.64;72.55;98943.16;1720366;83;21036;-42
2021/06/11 02:45:06;;;;;;;8.18;7.25;;;;;;;17.62;72.60;98935.93;1720460;83;21040;-42
2021/06/11 02:48:06;;;;;;;8.08;7.03;;;;;;;17.63;72.72;98937.48;1720403;83;21815;-42
2021/06/11 02:50:37;;;;;;;9.33;7.25;;;;;;;17.63;72.76;98938.86;1711965;83;21483;-42
2021/06/11 02:53:05;;;;;;;8.75;7.37;;;;;;;17.63;72.75;98936.70;1720554;83;21000;-42
2021/06/11 02:55:34;;;;;;;10.80;7.58;;;;;;;17.62;72.83;98935.93;1693973;83;21044;-42
2021/06/11 02:58:17;;;;;;;10.10;7.45;;;;;;;17.66;72.73;98938.05;1720635;83;21052;-42
2021/06/11 03:00:44;;;;;;;7.90;7.10;;;;;;;17.69;72.68;98935.83;1720201;83;21184;-42
2021/06/11 03:03:29;;;;;;;8.18;7.28;;;;;;;17.72;72.69;98938.31;1720339;83;21004;-43
2021/06/11 03:06:00;;;;;;;8.33;7.37;;;;;;;17.71;72.66;98934.83;1720386;83;21079;-42
2021/06/11 03:08:30;;;;;;;10.72;7.08;;;;;;;17.66;72.78;98939.41;1719766;82;21084;-42
2021/06/11 03:11:00;;;;;;;7.83;7.13;;;;;;;17.68;72.73;98940.34;1719429;83;21067;-42
2021/06/11 03:13:28;;;;;;;9.25;7.03;;;;;;;17.69;72.66;98944.64;1718828;83;21585;-42
2021/06/11 03:15:57;;;;;;;8.18;7.37;;;;;;;17.64;72.85;98941.78;1713753;83;21021;-42
2021/06/11 03:18:33;;;;;;;11.25;8.25;;;;;;;17.62;72.99;98944.16;1685619;85;21064;-43
2021/06/11 03:21:18;;;;;;;8.45;7.55;;;;;;;17.60;73.02;98941.07;1685569;85;21052;-42
2021/06/11 03:23:50;;;;;;;10.35;7.30;;;;;;;17.58;73.17;98942.04;1685713;85;21037;-42
2021/06/11 03:26:22;;;;;;;9.93;7.40;;;;;;;17.57;73.27;98945.97;1686908;85;21123;-42
2021/06/11 03:28:52;;;;;;;9.40;7.30;;;;;;;17.58;73.39;98944.78;1662027;86;21024;-42
2021/06/11 03:31:27;;;;;;;10.68;7.72;;;;;;;17.62;73.35;98956.48;1671732;85;21038;-42
2021/06/11 03:33:57;;;;;;;8.05;7.25;;;;;;;17.64;73.33;98951.38;1713298;83;20992;-42
2021/06/11 03:36:28;;;;;;;8.48;7.40;;;;;;;17.65;73.32;98954.31;1713291;83;21088;-42
2021/06/11 03:38:58;;;;;;;7.62;6.70;;;;;;;17.66;73.37;98950.38;1713314;82;21106;-42
2021/06/11 03:41:25;;;;;;;9.10;8.20;;;;;;;17.71;73.29;98950.50;1713281;82;21032;-42
2021/06/11 03:43:52;;;;;;;8.35;7.25;;;;;;;17.76;73.26;98950.80;1713368;83;21041;-42
2021/06/11 03:46:19;;;;;;;8.13;7.22;;;;;;;17.80;73.14;98957.00;1713349;82;21057;-42
2021/06/11 03:48:49;;;;;;;9.68;8.68;;;;;;;17.83;73.14;98952.62;1713267;83;21068;-42
2021/06/11 03:51:16;;;;;;;13.68;11.12;;;;;;;17.89;73.17;98954.30;1713318;83;21107;-42
2021/06/11 03:53:43;;;;;;;12.70;11.43;;;;;;;17.91;73.13;98951.93;1713583;83;21611;-42
2021/06/11 03:56:10;;;;;;;10.48;8.65;;;;;;;17.95;72.96;98951.27;1713649;82;21013;-42
2021/06/11 03:58:43;;;;;;;8.90;8.00;;;;;;;17.97;73.03;98950.23;1707627;83;21615;-43
2021/06/11 04:01:15;;;;;;;9.75;8.85;;;;;;;18.00;72.92;98950.79;1713726;83;21048;-42
2021/06/11 04:03:42;;;;;;;9.80;8.90;;;;;;;17.99;73.06;98957.46;1703640;83;21838;-42
2021/06/11 04:06:13;;;;;;;8.93;8.03;;;;;;;17.99;73.18;98960.20;1713587;83;20969;-42
2021/06/11 04:08:39;;;;;;;9.08;8.28;;;;;;;18.04;73.12;98951.50;1713677;83;21105;-42
2021/06/11 04:11:09;;;;;;;10.23;9.23;;;;;;;18.09;72.84;98965.51;1713483;83;21093;-42
2021/06/11 04:13:50;;;;;;;10.25;9.25;;;;;;;18.13;72.83;98962.69;1703873;83;21353;-42
2021/06/11 04:16:27;;;;;;;10.72;9.15;;;;;;;18.11;72.99;98958.98;1713493;82;21183;-42
2021/06/11 04:18:55;;;;;;;9.00;7.85;;;;;;;18.16;73.02;98967.33;1713272;82;21057;-42
2021/06/11 04:21:23;;;;;;;12.43;8.05;;;;;;;18.19;72.71;98969.25;1713328;83;20973;-42
2021/06/11 04:23:52;;;;;;;8.53;7.65;;;;;;;18.20;72.79;98968.06;1708248;83;21101;-42
2021/06/11 04:26:21;;;;;;;8.23;7.37;;;;;;;18.21;72.66;98969.59;1713705;83;21037;-42
2021/06/11 04:28:48;;;;;;;8.20;7.40;;;;;;;18.24;72.55;98967.40;1714015;82;21103;-42
2021/06/11 04:31:15;;;;;;;10.98;7.95;;;;;;;18.25;72.63;98963.44;1714925;82;21026;-42
2021/06/11 04:33:42;;;;;;;11.20;7.37;;;;;;;18.33;72.71;98971.73;1726333;83;21804;-42
2021/06/11 04:36:09;;;;;;;8.18;7.30;;;;;;;18.39;72.46;98968.69;1726311;83;21008;-42
2021/06/11 04:39:04;;;;;;;8.20;7.40;;;;;;;18.44;72.35;98968.80;1726435;82;21582;-42
2021/06/11 04:41:31;;;;;;;7.70;6.92;;;;;;;18.49;72.17;98976.54;1726250;83;21872;-42
2021/06/11 04:43:59;;;;;;;8.28;6.83;;;;;;;18.53;72.18;98977.24;1726311;82;20944;-42
2021/06/11 04:46:27;;;;;;;10.13;7.28;;;;;;;18.58;72.11;98981.68;1726295;82;21024;-42
2021/06/11 04:48:54;;;;;;;7.72;7.00;;;;;;;18.60;72.15;98979.27;1726407;82;22068;-42
2021/06/11 04:51:21;;;;;;;10.05;7.37;;;;;;;18.60;72.06;98977.89;1726310;83;21094;-42
2021/06/11 04:53:47;;;;;;;7.75;6.97;;;;;;;18.60;72.00;98984.77;1726346;83;21950;-42
2021/06/11 04:56:14;;;;;;;8.35;6.87;;;;;;;18.61;71.96;98982.20;1726334;83;21032;-42
2021/06/11 04:58:42;;;;;;;8.30;7.17;;;;;;;18.65;71.94;98984.27;1726456;82;21479;-42
2021/06/11 05:01:09;;;;;;;8.93;7.50;;;;;;;18.69;71.89;98979.33;1726280;83;20968;-42
2021/06/11 05:03:36;;;;;;;8.10;7.30;;;;;;;18.68;71.66;98981.30;1726145;82;21009;-43
2021/06/11 05:06:04;;;;;;;7.65;6.83;;;;;;;18.66;71.78;98984.45;1726595;83;21209;-42
2021/06/11 05:08:31;;;;;;;8.05;7.25;;;;;;;18.66;72.06;98988.57;1726038;83;21030;-42
2021/06/11 05:11:00;;;;;;;8.03;7.22;;;;;;;18.72;71.74;98981.22;1726376;83;21072;-42
2021/06/11 05:13:26;;;;;;;9.00;7.03;;;;;;;18.72;71.59;98985.33;1726258;83;21029;-42
2021/06/11 05:15:54;;;;;;;6.80;6.10;;;;;;;18.74;71.87;98987.04;1726307;81;21092;-42
2021/06/11 05:18:23;;;;;;;8.25;6.72;;;;;;;18.78;71.84;98979.53;1726051;83;21626;-42
2021/06/11 05:20:49;;;;;;;8.35;6.80;;;;;;;18.79;71.83;98985.17;1686729;83;21040;-43
2021/06/11 05:23:17;;;;;;;6.80;6.20;;;;;;;18.84;71.67;98988.80;1726398;83;21364;-42
2021/06/11 05:25:44;;;;;;;7.47;6.65;;;;;;;18.88;71.57;98991.65;1726266;83;21025;-42
2021/06/11 05:28:10;;;;;;;7.65;6.40;;;;;;;18.89;71.27;98984.96;1710153;83;21083;-43
2021/06/11 05:30:37;;;;;;;9.15;7.22;;;;;;;18.92;71.33;98992.97;1726154;82;21488;-42
2021/06/11 05:33:04;;;;;;;8.40;7.33;;;;;;;18.91;71.15;98994.16;1726322;82;21028;-42
2021/06/11 05:35:30;;;;;;;7.05;6.35;;;;;;;18.92;71.39;98990.22;1726378;82;21549;-42
2021/06/11 05:38:00;;;;;;;7.47;6.78;;;;;;;18.95;71.07;98987.99;1726257;82;21004;-42
2021/06/11 05:40:25;;;;;;;8.60;6.62;;;;;;;18.98;71.15;98991.25;1726189;82;21072;-43
2021/06/11 05:42:52;;;;;;;7.40;6.67;;;;;;;19.02;71.21;98998.84;1726298;82;21176;-43
2021/06/11 05:45:19;;;;;;;7.78;6.97;;;;;;;19.04;71.17;98997.80;1726290;82;21554;-42
2021/06/11 05:47:45;;;;;;;11.10;7.55;;;;;;;19.05;71.06;98997.39;1726733;83;21048;-42
2021/06/11 05:50:12;;;;;;;7.70;6.90;;;;;;;19.05;70.94;98996.61;1726302;83;21069;-43
2021/06/11 05:52:39;;;;;;;7.15;6.20;;;;;;;19.02;71.16;98996.88;1726229;83;21009;-42
2021/06/11 05:55:08;;;;;;;7.87;6.80;;;;;;;19.05;71.02;98998.76;1726223;83;21943;-42
2021/06/11 05:57:35;;;;;;;6.80;6.20;;;;;;;19.09;70.80;98998.68;1726924;83;20980;-42
2021/06/11 06:00:02;;;;;;;7.30;6.60;;;;;;;19.15;70.81;98996.98;1726230;83;21073;-42
2021/06/11 06:02:31;;;;;;;7.97;6.85;;;;;;;19.15;70.82;98996.98;1726309;82;21002;-42
2021/06/11 06:04:57;;;;;;;8.55;6.70;;;;;;;19.15;70.90;98995.61;1726181;83;21033;-42
2021/06/11 06:07:24;;;;;;;7.58;6.72;;;;;;;19.17;70.90;98997.31;1726488;83;21803;-42
2021/06/11 06:09:51;;;;;;;7.40;6.08;;;;;;;19.17;71.03;99005.56;1726437;83;20989;-43
2021/06/11 06:12:18;;;;;;;7.53;6.83;;;;;;;19.20;70.87;99004.73;1726451;83;21080;-41
2021/06/11 06:14:45;;;;;;;7.72;6.33;;;;;;;19.22;70.71;99000.19;1726360;82;21476;-43
2021/06/11 06:17:11;;;;;;;9.45;6.50;;;;;;;19.23;70.79;98996.99;1726522;81;21017;-42
2021/06/11 06:19:42;;;;;;;7.08;5.87;;;;;;;19.30;70.76;98999.60;1726210;83;21127;-42
2021/06/11 06:22:08;;;;;;;7.10;6.40;;;;;;;19.41;70.05;99001.48;1726281;82;21028;-42
2021/06/11 06:24:34;;;;;;;7.75;6.45;;;;;;;19.47;69.70;99003.94;1726161;83;21528;-42
2021/06/11 06:27:01;;;;;;;7.42;5.50;;;;;;;19.52;69.82;99006.19;1726570;82;21041;-42
2021/06/11 06:29:27;;;;;;;6.40;5.62;;;;;;;19.61;70.32;99008.34;1726307;82;21028;-43
2021/06/11 06:31:54;;;;;;;5.70;5.20;;;;;;;19.69;69.86;99010.33;1726342;83;21091;-42
2021/06/11 06:34:21;;;;;;;6.40;5.33;;;;;;;19.84;69.88;99008.80;1726188;83;21565;-42
2021/06/11 06:36:47;;;;;;;6.62;5.60;;;;;;;19.95;68.74;99012.04;1726465;83;21052;-42
2021/06/11 06:39:14;;;;;;;6.35;5.62;;;;;;;19.96;68.59;99008.09;1726336;82;21064;-42
2021/06/11 06:41:41;;;;;;;6.22;5.30;;;;;;;20.00;69.11;99012.90;1726394;82;21049;-43
2021/06/11 06:44:08;;;;;;;7.08;4.90;;;;;;;20.08;68.61;99014.29;1726342;83;21119;-43
2021/06/11 06:46:35;;;;;;;5.55;5.05;;;;;;;20.17;67.54;99009.55;1726284;83;21546;-42
2021/06/11 06:49:03;;;;;;;6.22;5.03;;;;;;;20.21;66.74;99014.34;1726389;83;21017;-42
2021/06/11 06:51:35;;;;;;;7.87;5.20;;;;;;;20.18;66.66;99011.88;1726346;83;21040;-42
2021/06/11 06:54:02;;;;;;;7.08;4.75;;;;;;;20.18;66.77;99014.62;1726290;82;21084;-42
2021/06/11 06:56:30;;;;;;;5.80;4.45;;;;;;;20.20;67.31;99014.17;1726515;82;21803;-42
2021/06/11 06:58:57;;;;;;;6.80;4.70;;;;;;;20.27;67.37;99014.78;1726511;83;21080;-42
2021/06/11 07:01:26;;;;;;;6.20;4.00;;;;;;;20.39;66.76;99005.05;1726256;82;20973;-43
2021/06/11 07:03:57;;;;;;;;;;;;;;;20.47;66.46;99006.42;1723118;82;21092;-43
2021/06/11 07:06:24;;;;;;;4.62;4.15;;;;;;;20.55;66.20;99005.62;1726584;82;20467;-43
2021/06/11 07:08:51;;;;;;;6.62;3.98;;;;;;;20.58;65.02;99007.49;1726301;83;21771;-43
2021/06/11 07:11:18;;;;;;;6.35;3.90;;;;;;;20.64;64.42;99012.05;1726176;83;20964;-42
2021/06/11 07:13:45;;;;;;;4.28;3.87;;;;;;;20.72;64.38;99014.02;1726533;82;21454;-43
2021/06/11 07:16:12;;;;;;;5.42;3.98;;;;;;;20.76;63.79;99008.57;1726250;81;21025;-43
2021/06/11 07:18:39;;;;;;;5.80;4.17;;;;;;;20.80;64.22;99015.35;1755950;81;21538;-43
2021/06/11 07:21:07;;;;;;;5.30;3.80;;;;;;;20.86;63.50;99010.08;1720507;83;21149;-42
2021/06/11 07:23:35;;;;;;;6.50;3.75;;;;;;;20.94;63.80;99010.81;1720439;83;21527;-42
2021/06/11 07:26:05;;;;;;;6.00;4.00;;;;;;;21.08;63.44;99010.41;1720294;83;21072;-43
2021/06/11 07:28:31;;;;;;;4.20;3.80;;;;;;;21.17;63.00;99010.55;1720573;83;21573;-42
2021/06/11 07:30:57;;;;;;;5.20;4.47;;;;;;;21.26;62.63;99001.63;1720516;83;20976;-43
2021/06/11 07:33:24;;;;;;;6.00;4.53;;;;;;;21.32;63.17;99004.01;1712521;83;21176;-43
2021/06/11 07:35:52;;;;;;;4.95;4.42;;;;;;;21.41;62.09;99006.10;1707394;84;21023;-43
2021/06/11 07:38:19;;;;;;;5.50;4.12;;;;;;;21.45;61.98;99011.67;1743079;81;20965;-42
2021/06/11 07:40:46;;;;;;;5.22;3.95;;;;;;;21.44;61.56;99012.13;1743182;82;21014;-43
2021/06/11 07:43:13;;;;;;;4.97;4.47;;;;;;;21.45;62.21;99015.03;1743208;82;21037;-43
2021/06/11 07:48:06;;;;;;;7.87;4.80;;;;;;;21.52;62.66;99008.70;1782896;79;22084;-42
2021/06/11 07:50:33;;;;;;;4.25;3.75;;;;;;;21.52;62.15;99013.45;1755077;81;20938;-43
2021/06/11 07:53:00;;;;;;;4.78;4.08;;;;;;;21.61;61.53;99010.80;1755132;81;21115;-43
2021/06/11 07:55:26;;;;;;;5.65;4.20;;;;;;;21.62;60.29;99009.59;1755035;81;21528;-43
2021/06/11 07:57:53;;;;;;;5.10;4.30;;;;;;;21.60;60.80;99011.41;1755515;81;20935;-42
2021/06/11 08:00:21;;;;;;;4.70;4.20;;;;;;;21.62;60.10;99006.83;1755163;81;20927;-42
2021/06/11 08:02:48;;;;;;;8.18;4.67;;;;;;;21.61;60.23;99016.31;1755427;81;21303;-43
2021/06/11 08:05:15;;;;;;;7.12;4.28;;;;;;;21.60;60.53;99020.28;1755139;81;21088;-42
2021/06/11 08:07:42;;;;;;;5.00;4.20;;;;;;;21.66;61.21;99019.91;1755070;81;21843;-42
2021/06/11 08:10:10;;;;;;;8.85;4.60;;;;;;;21.73;60.14;99021.67;1755121;81;21009;-42
2021/06/11 08:12:38;;;;;;;;;;;;;;;21.80;60.18;99020.83;1757526;81;21615;-43
2021/06/11 08:15:07;;;;;;;12.68;7.10;;;;;;;21.85;60.67;99023.03;1755102;81;20135;-42
2021/06/11 08:17:34;;;;;;;6.62;4.97;;;;;;;21.84;61.57;99020.70;1730818;81;21129;-43
2021/06/11 08:20:01;;;;;;;4.97;4.08;;;;;;;21.94;60.96;99021.00;1726568;83;21061;-43
2021/06/11 08:22:27;;;;;;;7.92;4.25;;;;;;;22.01;59.98;99017.42;1726514;83;20977;-42
2021/06/11 08:24:54;;;;;;;4.70;4.08;;;;;;;22.06;59.91;99015.47;1726589;83;20933;-43
2021/06/11 08:27:21;;;;;;;5.65;4.55;;;;;;;22.16;60.31;99030.75;1726760;83;21001;-43
2021/06/11 08:29:48;;;;;;;6.65;4.92;;;;;;;22.20;59.72;99030.79;1726852;83;21086;-43
2021/06/11 08:32:14;;;;;;;6.05;4.40;;;;;;;22.22;58.50;99023.45;1726928;83;21037;-43
2021/06/11 08:34:43;;;;;;;7.22;4.67;;;;;;;22.16;59.61;99025.23;1726678;82;20997;-43
2021/06/11 08:37:10;;;;;;;8.08;4.53;;;;;;;22.09;58.86;99020.09;1726819;83;21051;-42
2021/06/11 08:39:36;;;;;;;4.75;4.30;;;;;;;22.04;58.92;99019.28;1726777;83;21092;-42
2021/06/11 08:42:06;;;;;;;5.28;4.72;;;;;;;22.09;58.97;99014.58;1726900;83;21142;-44
2021/06/11 08:44:33;;;;;;;6.70;4.65;;;;;;;22.21;59.07;99008.09;1726713;82;20933;-43
2021/06/11 08:47:00;;;;;;;8.13;4.40;;;;;;;22.39;58.97;99011.02;1726646;83;20997;-43
2021/06/11 08:49:27;;;;;;;4.37;3.98;;;;;;;22.60;57.82;99006.13;1726723;83;21016;-44
2021/06/11 08:51:59;;;;;;;4.87;4.30;;;;;;;22.83;57.27;99001.56;1727023;83;21072;-43
2021/06/11 08:54:27;;;;;;;4.55;4.10;;;;;;;22.93;56.49;99002.39;1726818;83;21130;-43
2021/06/11 08:56:54;;;;;;;8.90;4.05;;;;;;;22.96;56.49;99002.25;1726873;82;21016;-43
2021/06/11 08:59:21;;;;;;;5.42;4.12;;;;;;;22.92;56.34;99000.84;1726552;83;21491;-43
2021/06/11 09:01:48;;;;;;;8.35;4.47;;;;;;;22.86;56.24;98993.74;1726566;83;21043;-42
2021/06/11 09:04:15;;;;;;;8.13;4.35;;;;;;;22.86;55.85;98999.88;1726288;83;21045;-43
2021/06/11 09:06:41;;;;;;;6.20;4.10;;;;;;;22.90;55.61;98993.60;1726486;83;21107;-42
2021/06/11 09:09:09;;;;;;;4.37;3.90;;;;;;;23.01;56.58;98993.98;1726357;83;20918;-43
2021/06/11 09:11:36;;;;;;;5.08;4.12;;;;;;;23.14;55.86;98991.16;1726269;83;21606;-43
2021/06/11 09:14:08;;;;;;;6.20;4.50;;;;;;;23.23;55.46;98989.81;1726657;83;21053;-43
2021/06/11 09:16:47;;;;;;;6.75;4.15;;;;;;;23.07;53.63;98948.55;1726373;81;21519;-43
2021/06/11 09:19:19;;;;;;;4.12;3.72;;;;;;;23.41;53.88;98987.13;1725796;82;21119;-43
2021/06/11 09:21:55;;;;;;;5.45;3.65;;;;;;;23.52;53.97;98986.74;1745308;81;20985;-43
2021/06/11 09:24:27;;;;;;;5.42;4.05;;;;;;;23.62;53.28;98986.32;1756725;81;21535;-43
2021/06/11 09:27:12;;;;;;;5.97;3.75;;;;;;;23.62;52.17;98982.17;1756421;81;20973;-43
2021/06/11 09:29:43;;;;;;;7.08;4.10;;;;;;;23.62;52.74;98980.02;1750582;81;21036;-43
2021/06/11 09:32:20;;;;;;;4.75;4.20;;;;;;;23.70;53.68;98972.95;1691687;84;21734;-43
2021/06/11 09:34:50;;;;;;;5.05;4.10;;;;;;;23.83;53.55;98977.75;1691830;84;21609;-43
2021/06/11 09:37:27;;;;;;;6.78;4.10;;;;;;;23.91;52.20;98974.86;1690840;84;21065;-43
2021/06/11 09:39:57;;;;;;;5.00;4.50;;;;;;;23.88;52.20;98976.38;1691516;84;21084;-43
2021/06/11 09:42:27;;;;;;;6.37;4.37;;;;;;;23.77;52.08;98973.42;1692051;83;21413;-42
2021/06/11 09:44:57;;;;;;;13.00;3.98;;;;;;;23.64;52.39;98978.92;1691979;84;21099;-43
2021/06/11 09:47:43;;;;;;;5.12;4.00;;;;;;;23.52;52.24;98971.52;1689082;84;21012;-43
2021/06/11 09:50:17;;;;;;;4.60;4.20;;;;;;;23.40;52.61;98964.83;1686541;85;21062;-43
2021/06/11 09:52:58;;;;;;;4.42;4.03;;;;;;;23.30;52.90;98968.17;1721392;82;20978;-44
2021/06/11 09:55:45;;;;;;;6.28;4.50;;;;;;;23.24;53.25;98966.44;1686590;85;21056;-43
2021/06/11 09:58:23;;;;;;;7.85;4.53;;;;;;;23.17;53.11;98978.57;1686391;85;21863;-43
2021/06/11 10:00:57;;;;;;;4.40;4.00;;;;;;;23.09;53.23;98971.75;1686612;85;20940;-43
2021/06/11 10:03:30;;;;;;;6.62;4.10;;;;;;;23.03;53.35;98968.66;1686060;85;20992;-43
2021/06/11 10:06:01;;;;;;;4.67;4.17;;;;;;;22.96;53.54;98973.23;1686731;85;20976;-42
2021/06/11 10:08:28;;;;;;;4.67;3.87;;;;;;;22.90;54.05;98977.79;1721241;83;21081;-42
2021/06/11 10:10:57;;;;;;;5.50;3.77;;;;;;;22.81;54.70;98976.36;1721456;83;21090;-43
2021/06/11 10:13:24;;;;;;;6.47;4.07;;;;;;;22.69;55.36;98979.95;1721423;83;21511;-43
2021/06/11 10:15:52;;;;;;;7.87;4.12;;;;;;;22.53;55.07;98980.90;1725576;82;21242;-42
2021/06/11 10:18:19;;;;;;;6.10;3.80;;;;;;;22.37;56.83;98977.53;1715262;83;21487;-43
2021/06/11 10:20:46;;;;;;;6.83;4.10;;;;;;;22.19;57.53;98972.63;1715333;83;21072;-43
2021/06/11 10:23:17;;;;;;;7.30;3.83;;;;;;;22.03;57.86;98972.18;1715157;83;21179;-43
2021/06/11 10:25:46;;;;;;;5.15;4.08;;;;;;;21.92;58.38;98979.26;1715040;83;21651;-43
2021/06/11 10:28:19;;;;;;;6.08;4.08;;;;;;;21.85;58.95;98980.25;1751038;81;20957;-43
2021/06/11 10:30:48;;;;;;;4.90;4.42;;;;;;;21.80;59.53;98978.66;1732853;81;21009;-43
2021/06/11 10:33:15;;;;;;;9.35;4.22;;;;;;;21.76;59.25;98980.16;1721452;83;21032;-43
2021/06/11 10:35:47;;;;;;;7.05;4.22;;;;;;;21.75;58.97;98979.22;1686509;85;21107;-43
2021/06/11 10:38:34;;;;;;;6.10;4.45;;;;;;;21.72;59.45;98985.03;1721150;82;21006;-43
2021/06/11 10:41:06;;;;;;;10.08;6.50;;;;;;;21.73;59.59;98976.14;1721260;83;20937;-43
2021/06/11 10:43:37;;;;;;;9.58;4.97;;;;;;;21.79;59.69;98972.36;1721163;83;20956;-43
2021/06/11 10:46:29;;;;;;;12.15;5.47;;;;;;;21.90;59.31;98972.80;1721500;83;22048;-43
2021/06/11 10:49:07;;;;;;;9.03;4.90;;;;;;;21.99;59.05;98959.11;1679545;85;21824;-43
2021/06/11 10:51:47;;;;;;;6.35;4.17;;;;;;;22.15;59.02;98965.09;1679074;85;21021;-43
2021/06/11 10:54:26;;;;;;;9.08;4.20;;;;;;;22.37;58.86;98960.36;1679083;85;20953;-43
2021/06/11 10:57:11;;;;;;;5.90;4.05;;;;;;;22.70;58.67;98958.03;1713849;83;21047;-43
2021/06/11 10:59:40;;;;;;;6.12;4.15;;;;;;;23.13;57.58;98955.81;1713517;83;21009;-43
2021/06/11 11:02:07;;;;;;;;;;;;;;;23.59;56.64;98947.09;1715998;82;21012;-43
2021/06/11 11:04:41;;;;;;;6.08;4.03;;;;;;;24.01;55.28;98942.42;1713383;83;20667;-42
2021/06/11 11:07:30;;;;;;;5.58;3.90;;;;;;;24.32;55.02;98934.75;1679271;85;21645;-43
2021/06/11 11:10:02;;;;;;;4.08;3.67;;;;;;;24.77;53.41;98933.16;1713678;83;21077;-44
2021/06/11 11:12:30;;;;;;;8.70;3.90;;;;;;;25.18;51.96;98937.97;1679204;85;20976;-43
2021/06/11 11:15:02;;;;;;;4.53;4.00;;;;;;;25.40;51.30;98940.52;1713482;83;21554;-43
2021/06/11 11:17:29;;;;;;;4.05;3.60;;;;;;;25.45;51.33;98933.70;1738025;82;21020;-43
2021/06/11 11:20:02;;;;;;;9.03;3.75;;;;;;;25.31;50.52;98937.78;1743059;82;21566;-43
2021/06/11 11:22:38;;;;;;;6.90;4.45;;;;;;;25.11;50.05;98936.94;1743352;81;21076;-43
2021/06/11 11:25:15;;;;;;;9.83;4.25;;;;;;;25.08;49.94;98926.75;1743184;81;21516;-43
2021/06/11 11:27:47;;;;;;;4.47;4.00;;;;;;;25.26;49.74;98925.32;1743336;81;21115;-43
2021/06/11 11:30:14;;;;;;;4.87;3.58;;;;;;;25.55;50.04;98923.35;1743116;82;20890;-43
2021/06/11 11:32:41;;;;;;;5.92;3.75;;;;;;;25.82;49.70;98919.63;1743237;82;21618;-43
2021/06/11 11:35:10;;;;;;;7.00;3.70;;;;;;;26.06;49.71;98920.38;1743291;82;21030;-43
2021/06/11 11:37:36;;;;;;;9.03;4.00;;;;;;;26.17;48.13;98919.83;1743771;82;21010;-43
2021/06/11 11:40:05;;;;;;;5.70;3.70;;;;;;;26.10;48.17;98916.79;1743125;82;21107;-43
2021/06/11 11:42:31;;;;;;;7.37;4.40;;;;;;;25.87;45.61;98913.42;1731259;81;21053;-43
2021/06/11 11:44:58;;;;;;;3.50;3.20;;;;;;;25.73;47.69;98912.13;1678941;85;21534;-43
2021/06/11 11:47:24;;;;;;;7.58;4.28;;;;;;;25.86;46.52;98906.33;1680444;85;20952;-43